Xingzhou — BERZ5 — position and weather

sailwx.info

Track history (hours):
 
Tides and Currents Weather Stations Pressure Air Temp Water Temp Dewpoint Dewpoint Depression Visibility Wind Speed Wind Dir Waves Ship Positions

Xingzhou

Last reported at 2018-Feb-20 13:58 UTC. Time now 2018-Feb-23 00:53 UTC.
Position N 24°20' E 118°35'.

Length 98 m; draft 5.6 m.

Type: Ship. MMSI: 413591770.

Date/timePositionNaut miles runAvg speedWind from/ knotsBaromVisibWave heightAir tempDewpointWater temp
2018-Feb-20 13:58N 24°20' E 118°35'4 8.1
2018-Feb-20 13:26N 24°18' E 118°31'4 8.5
2018-Feb-20 13:00N 24°16' E 118°28'5 8.5
2018-Feb-20 12:28N 24°12' E 118°24'4 8.4
2018-Feb-20 12:00N 24°10' E 118°21'5 8.0
2018-Feb-20 11:26N 24°07' E 118°17'26 6.7
2018-Feb-20 07:34N 23°52' E 117°54'2 6.5
2018-Feb-20 07:14N 23°50' E 117°52'2 6.7
2018-Feb-20 06:57N 23°49' E 117°51'4 7.0
2018-Feb-20 06:19N 23°46' E 117°47'2 7.7
2018-Feb-20 06:00N 23°45' E 117°45'4 8.0
2018-Feb-20 05:30N 23°42' E 117°41'4 8.2
2018-Feb-20 05:00N 23°40' E 117°38'4 8.6
2018-Feb-20 04:30N 23°37' E 117°34'4 8.8
2018-Feb-20 04:00N 23°35' E 117°30'4 8.4
2018-Feb-20 03:31N 23°32' E 117°26'4 8.0
2018-Feb-20 03:00N 23°30' E 117°23'4 7.7
2018-Feb-20 02:30N 23°27' E 117°20'4 7.6
2018-Feb-20 01:59N 23°26' E 117°16'11 7.5
2018-Feb-20 00:32N 23°22' E 117°05'  
2018-Feb-16 06:43N 19°49' E 109°09'1 5.1
2018-Feb-16 06:28N 19°50' E 109°09'  
Track history (hours):
 
Tides and Currents Weather Stations Pressure Air Temp Water Temp Dewpoint Dewpoint Depression Visibility Wind Speed Wind Dir Waves Ship Positions

Xingzhou

Last reported at 2018-Feb-20 13:58 UTC. Time now 2018-Feb-23 00:53 UTC.
Position N 24°20' E 118°35'.

Length 98 m; draft 5.6 m.

Type: Ship. MMSI: 413591770.

Date/timePositionNaut miles runAvg speedWind from/ knotsBaromVisibWave heightAir tempDewpointWater temp
2018-Feb-20 13:58N 24°20' E 118°35'4 8.1
2018-Feb-20 13:26N 24°18' E 118°31'4 8.5
2018-Feb-20 13:00N 24°16' E 118°28'5 8.5
2018-Feb-20 12:28N 24°12' E 118°24'4 8.4
2018-Feb-20 12:00N 24°10' E 118°21'5 8.0
2018-Feb-20 11:26N 24°07' E 118°17'26 6.7
2018-Feb-20 07:34N 23°52' E 117°54'2 6.5
2018-Feb-20 07:14N 23°50' E 117°52'2 6.7
2018-Feb-20 06:57N 23°49' E 117°51'4 7.0
2018-Feb-20 06:19N 23°46' E 117°47'2 7.7
2018-Feb-20 06:00N 23°45' E 117°45'4 8.0
2018-Feb-20 05:30N 23°42' E 117°41'4 8.2
2018-Feb-20 05:00N 23°40' E 117°38'4 8.6
2018-Feb-20 04:30N 23°37' E 117°34'4 8.8
2018-Feb-20 04:00N 23°35' E 117°30'4 8.4
2018-Feb-20 03:31N 23°32' E 117°26'4 8.0
2018-Feb-20 03:00N 23°30' E 117°23'4 7.7
2018-Feb-20 02:30N 23°27' E 117°20'4 7.6
2018-Feb-20 01:59N 23°26' E 117°16'11 7.5
2018-Feb-20 00:32N 23°22' E 117°05'  
2018-Feb-16 06:43N 19°49' E 109°09'1 5.1
2018-Feb-16 06:28N 19°50' E 109°09'  

Dump ship's entire track history